Time;durP1;ratioP1;P1;durP2;ratioP2;P2;SDS_P1;SDS_P2;PMS_P1;PMS_P2;Temp;Humidity;BMP_temperature;BMP_pressure;BME280_temperature;BME280_humidity;BME280_pressure;Samples;Min_cycle;Max_cycle;Signal;HPM_P1;HPM_P2
2022/09/03 00:01:28;;;;;;;1.27;1.10;;;;;;;18.19;75.45;98703.03;4990234;28;20205;-80
2022/09/03 00:04:00;;;;;;;1.50;1.27;;;;;;;18.25;75.17;98705.09;4988857;28;20232;-79
2022/09/03 00:06:34;;;;;;;2.30;1.33;;;;;;;18.19;75.84;98708.41;4984653;28;20203;-79
2022/09/03 00:09:09;;;;;;;2.53;1.30;;;;;;;18.03;77.23;98704.59;4981659;28;20217;-79
2022/09/03 00:11:46;;;;;;;2.00;1.40;;;;;;;18.09;76.54;98697.78;4989336;28;20195;-79
2022/09/03 00:14:20;;;;;;;3.30;1.47;;;;;;;18.11;77.06;98708.34;4975809;28;20225;-80
2022/09/03 00:16:55;;;;;;;2.03;1.30;;;;;;;18.10;77.29;98707.50;4987542;28;20203;-79
2022/09/03 00:19:29;;;;;;;2.50;1.30;;;;;;;18.31;76.34;98715.19;5010350;28;20295;-80
2022/09/03 00:22:01;;;;;;;1.30;1.20;;;;;;;18.23;76.59;98707.91;5044354;28;20201;-79
2022/09/03 00:24:36;;;;;;;2.23;1.20;;;;;;;18.22;76.91;98702.72;5041403;28;20216;-79
2022/09/03 00:27:11;;;;;;;2.73;1.23;;;;;;;18.34;76.30;98712.22;5080465;28;20199;-79
2022/09/03 00:29:46;;;;;;;1.10;1.00;;;;;;;18.22;76.86;98708.91;5106853;28;20705;-80
2022/09/03 00:32:22;;;;;;;2.77;1.60;;;;;;;18.06;77.96;98705.31;5107162;28;20206;-80
2022/09/03 00:34:57;;;;;;;2.60;1.30;;;;;;;18.21;77.70;98698.38;5112565;27;20279;-79
2022/09/03 00:37:31;;;;;;;2.50;1.73;;;;;;;18.22;77.52;98702.72;5104890;28;20244;-80
2022/09/03 00:40:14;;;;;;;2.70;1.83;;;;;;;18.03;78.61;98704.59;5112951;28;20199;-80
2022/09/03 00:42:53;;;;;;;2.27;1.10;;;;;;;18.03;78.82;98707.28;5104854;28;20199;-80
2022/09/03 00:45:33;;;;;;;3.73;1.27;;;;;;;18.15;78.56;98699.84;5106238;28;20191;-79
2022/09/03 00:48:18;;;;;;;3.90;1.27;;;;;;;18.16;78.53;98704.22;5110453;28;20235;-80
2022/09/03 00:51:10;;;;;;;5.20;1.90;;;;;;;17.99;79.07;98700.56;5110849;28;20187;-80
2022/09/03 00:53:53;;;;;;;5.53;3.30;;;;;;;17.92;80.49;98698.66;5105419;28;20198;-80
2022/09/03 00:56:31;;;;;;;2.13;1.27;;;;;;;17.90;80.71;98698.81;5114240;28;20207;-80
2022/09/03 00:59:14;;;;;;;2.27;1.40;;;;;;;17.89;81.41;98688.28;5111254;28;20302;-79
2022/09/03 01:01:50;;;;;;;2.13;1.30;;;;;;;18.03;80.95;98699.25;5116180;28;20214;-80
2022/09/03 01:04:47;;;;;;;2.27;1.20;;;;;;;17.92;80.80;98702.19;5107318;28;20195;-80
2022/09/03 01:07:30;;;;;;;3.87;1.50;;;;;;;17.88;81.40;98702.66;5111364;28;20203;-79
2022/09/03 01:10:10;;;;;;;1.80;1.50;;;;;;;17.64;83.91;98706.78;5069620;28;20198;-79
2022/09/03 01:12:49;;;;;;;2.73;2.00;;;;;;;17.59;84.94;98716.28;5068161;28;20307;-80
2022/09/03 01:15:26;;;;;;;2.73;2.10;;;;;;;17.62;85.20;98708.78;5068698;28;20366;-79
2022/09/03 01:18:07;;;;;;;1.90;1.37;;;;;;;17.73;84.56;98703.19;5063945;28;20203;-79
2022/09/03 01:20:53;;;;;;;2.13;1.60;;;;;;;17.73;84.17;98705.03;5066655;28;20242;-80
2022/09/03 01:23:47;;;;;;;3.53;1.30;;;;;;;17.66;84.94;98706.63;5066904;28;20200;-79
2022/09/03 01:26:29;;;;;;;2.77;1.60;;;;;;;17.48;84.85;98705.81;5070465;28;20218;-79
2022/09/03 01:29:10;;;;;;;1.93;1.73;;;;;;;17.39;85.46;98705.72;5070616;28;20271;-80
2022/09/03 01:31:46;;;;;;;2.37;1.70;;;;;;;17.27;86.30;98698.88;5068905;28;20234;-79
2022/09/03 01:34:24;;;;;;;1.83;1.63;;;;;;;17.10;87.37;98705.94;5088000;28;20229;-80
2022/09/03 01:37:02;;;;;;;3.30;1.80;;;;;;;16.98;87.82;98704.44;5102959;28;20249;-80
2022/09/03 01:39:45;;;;;;;1.50;1.40;;;;;;;16.92;88.24;98709.56;5111531;28;20198;-80
2022/09/03 01:42:23;;;;;;;2.43;1.43;;;;;;;16.77;89.12;98702.00;5104705;28;20195;-79
2022/09/03 01:45:07;;;;;;;1.43;1.17;;;;;;;16.92;89.18;98712.22;5109327;28;20198;-80
2022/09/03 01:47:50;;;;;;;2.47;1.40;;;;;;;16.85;90.09;98714.66;5113039;28;20199;-80
2022/09/03 01:50:33;;;;;;;2.67;1.90;;;;;;;16.66;91.68;98707.53;5113855;28;20195;-79
2022/09/03 01:53:08;;;;;;;2.63;1.80;;;;;;;16.54;92.29;98711.38;5110116;28;20580;-80
2022/09/03 01:55:50;;;;;;;2.87;1.40;;;;;;;16.63;91.90;98701.66;5115040;28;20214;-80
2022/09/03 01:58:22;;;;;;;1.47;1.33;;;;;;;16.62;92.40;98707.97;5112520;28;20199;-80
2022/09/03 02:00:57;;;;;;;1.30;1.10;;;;;;;16.31;94.54;98711.75;5111245;28;20191;-79
2022/09/03 02:03:35;;;;;;;2.93;1.47;;;;;;;16.38;94.82;98708.47;5115327;28;20273;-79
2022/09/03 02:06:08;;;;;;;2.63;1.13;;;;;;;16.12;96.10;98714.47;5111758;28;20202;-79
2022/09/03 02:08:36;;;;;;;3.97;1.47;;;;;;;15.69;98.34;98717.63;5108537;28;20654;-79
2022/09/03 02:11:07;;;;;;;5.37;3.17;;;;;;;15.71;99.18;98712.97;5112250;28;20199;-79
2022/09/03 02:13:39;;;;;;;4.07;1.40;;;;;;;15.67;98.82;98709.75;5109786;28;20219;-79
2022/09/03 02:16:15;;;;;;;1.20;1.10;;;;;;;15.80;98.67;98717.47;5108258;28;20242;-79
2022/09/03 02:18:48;;;;;;;2.80;1.40;;;;;;;16.00;97.73;98707.59;5109592;28;20206;-79
2022/09/03 02:21:19;;;;;;;2.90;1.67;;;;;;;16.02;96.92;98714.50;5109478;28;20207;-79
2022/09/03 02:23:48;;;;;;;2.70;1.27;;;;;;;16.09;96.65;98711.25;5116036;27;20202;-80
2022/09/03 02:26:21;;;;;;;2.80;1.17;;;;;;;15.91;97.48;98706.63;5114591;28;20255;-79
2022/09/03 02:28:50;;;;;;;3.60;1.73;;;;;;;15.85;98.51;98709.03;5111517;28;20210;-79
2022/09/03 02:31:20;;;;;;;2.70;1.23;;;;;;;15.95;98.88;98713.38;5111895;28;20274;-79
2022/09/03 02:33:50;;;;;;;2.60;1.00;;;;;;;16.02;98.68;98705.66;5111099;28;20191;-79
2022/09/03 02:36:25;;;;;;;3.37;1.70;;;;;;;15.82;98.70;98696.78;5116936;27;20219;-79
2022/09/03 02:38:55;;;;;;;3.53;1.70;;;;;;;15.76;99.84;98700.06;5118417;27;20706;-79
2022/09/03 02:41:26;;;;;;;2.43;1.30;;;;;;;15.67;100.00;98698.22;5108755;28;20226;-79
2022/09/03 02:43:59;;;;;;;2.60;1.30;;;;;;;15.62;100.00;98695.97;5106628;28;20278;-79
2022/09/03 02:46:35;;;;;;;3.17;1.47;;;;;;;15.52;100.00;98704.94;5112763;28;20198;-79
2022/09/03 02:49:03;;;;;;;2.53;1.33;;;;;;;15.32;100.00;98701.41;5112648;28;20310;-79
2022/09/03 02:51:35;;;;;;;1.77;1.20;;;;;;;15.26;100.00;98702.00;5112677;27;20304;-79
2022/09/03 02:54:05;;;;;;;2.70;1.40;;;;;;;15.19;100.00;98699.03;5108223;28;20195;-79
2022/09/03 02:56:33;;;;;;;2.37;1.07;;;;;;;15.10;100.00;98703.38;5111755;28;20221;-79
2022/09/03 02:59:03;;;;;;;1.40;1.20;;;;;;;15.13;100.00;98704.91;5111075;28;20706;-79
2022/09/03 03:01:33;;;;;;;2.30;1.17;;;;;;;15.11;100.00;98698.88;5108452;28;20199;-79
2022/09/03 03:04:03;;;;;;;1.83;1.10;;;;;;;15.10;100.00;98699.84;5115634;27;20269;-79
2022/09/03 03:06:32;;;;;;;2.30;1.27;;;;;;;15.08;100.00;98697.34;5106023;28;20207;-79
2022/09/03 03:09:04;;;;;;;1.40;1.20;;;;;;;14.98;100.00;98695.63;5110421;28;20282;-79
2022/09/03 03:11:35;;;;;;;1.60;1.20;;;;;;;14.87;100.00;98700.09;5112142;28;20217;-79
2022/09/03 03:14:04;;;;;;;4.70;1.30;;;;;;;14.85;100.00;98702.03;5045843;28;20200;-79
2022/09/03 03:16:34;;;;;;;1.50;1.30;;;;;;;14.89;100.00;98698.13;5051011;28;20281;-79
2022/09/03 03:19:02;;;;;;;2.47;1.20;;;;;;;14.93;100.00;98695.19;5048781;28;20243;-80
2022/09/03 03:21:32;;;;;;;2.13;1.37;;;;;;;14.94;100.00;98697.72;5045962;28;20273;-79
2022/09/03 03:24:02;;;;;;;2.43;1.40;;;;;;;15.01;100.00;98698.84;5047677;28;20260;-79
2022/09/03 03:26:30;;;;;;;1.27;1.17;;;;;;;14.84;100.00;98689.69;5001700;28;20308;-79
2022/09/03 03:29:03;;;;;;;1.57;1.30;;;;;;;14.92;100.00;98694.34;5050743;28;20208;-80
2022/09/03 03:31:33;;;;;;;2.53;1.50;;;;;;;14.86;100.00;98689.53;5058616;28;20187;-79
2022/09/03 03:34:03;;;;;;;1.60;1.17;;;;;;;14.72;100.00;98696.13;5116063;27;20202;-79
2022/09/03 03:36:34;;;;;;;1.40;1.20;;;;;;;14.72;100.00;98701.44;5112293;28;20222;-79
2022/09/03 03:39:04;;;;;;;1.37;1.10;;;;;;;14.63;100.00;98698.75;5112013;28;20191;-79
2022/09/03 03:41:33;;;;;;;1.53;1.43;;;;;;;14.72;100.00;98700.59;5108050;28;20277;-79
2022/09/03 03:44:06;;;;;;;1.60;1.30;;;;;;;14.78;100.00;98700.91;5109287;28;20222;-79
2022/09/03 03:46:38;;;;;;;1.70;1.30;;;;;;;14.58;100.00;98693.84;5108336;28;20642;-79
2022/09/03 03:49:07;;;;;;;1.93;1.33;;;;;;;14.42;100.00;98698.78;5109400;28;20227;-80
2022/09/03 03:51:37;;;;;;;1.80;1.30;;;;;;;14.48;100.00;98696.47;5102311;28;20669;-80
2022/09/03 03:54:06;;;;;;;1.57;1.30;;;;;;;14.49;100.00;98691.97;5106855;28;20213;-79
2022/09/03 03:56:35;;;;;;;2.00;1.23;;;;;;;14.55;100.00;98694.94;5110328;28;20226;-79
2022/09/03 03:59:04;;;;;;;1.80;1.27;;;;;;;14.66;100.00;98696.66;5105477;28;20195;-79
2022/09/03 04:01:33;;;;;;;2.03;1.20;;;;;;;14.47;100.00;98693.91;5070185;28;20201;-79
2022/09/03 04:04:04;;;;;;;2.50;1.60;;;;;;;14.45;100.00;98694.06;5070620;28;20234;-79
2022/09/03 04:06:33;;;;;;;2.60;1.30;;;;;;;14.51;100.00;98690.84;5065350;28;20227;-79
2022/09/03 04:09:02;;;;;;;4.00;1.30;;;;;;;14.54;100.00;98687.91;5065315;28;20227;-79
2022/09/03 04:11:33;;;;;;;1.50;1.40;;;;;;;14.46;100.00;98682.41;5065304;28;20211;-79
2022/09/03 04:14:03;;;;;;;2.20;1.30;;;;;;;14.52;100.00;98681.03;5065880;28;20287;-79
2022/09/03 04:16:32;;;;;;;1.43;1.10;;;;;;;14.49;100.00;98684.00;5067597;28;20243;-79
2022/09/03 04:19:01;;;;;;;1.93;1.57;;;;;;;14.46;100.00;98670.91;5072810;28;20191;-79
2022/09/03 04:21:31;;;;;;;1.90;1.20;;;;;;;14.38;100.00;98674.25;5104519;28;20735;-79
2022/09/03 04:24:00;;;;;;;1.27;1.10;;;;;;;14.38;100.00;98676.03;5105743;28;20213;-79
2022/09/03 04:26:30;;;;;;;3.13;1.30;;;;;;;14.40;100.00;98677.59;5110154;28;20191;-79
2022/09/03 04:28:59;;;;;;;2.37;1.30;;;;;;;14.45;100.00;98674.56;5108543;28;20285;-79
2022/09/03 04:31:29;;;;;;;1.63;1.20;;;;;;;14.57;100.00;98671.69;5107469;28;20188;-79
2022/09/03 04:33:58;;;;;;;2.47;1.40;;;;;;;14.44;100.00;98675.50;5106918;28;20191;-80
2022/09/03 04:36:29;;;;;;;2.93;1.60;;;;;;;14.24;100.00;98672.75;5115784;28;20274;-79
2022/09/03 04:39:00;;;;;;;2.40;1.37;;;;;;;14.28;100.00;98674.19;5079039;28;20206;-79
2022/09/03 04:41:31;;;;;;;1.63;1.30;;;;;;;14.29;100.00;98673.22;5112227;28;20202;-79
2022/09/03 04:44:00;;;;;;;2.60;1.30;;;;;;;14.54;100.00;98673.75;5114789;28;20706;-79
2022/09/03 04:46:32;;;;;;;2.70;1.40;;;;;;;14.56;100.00;98680.63;5113819;28;20203;-79
2022/09/03 04:49:01;;;;;;;1.60;1.30;;;;;;;14.62;100.00;98673.94;5114444;28;20272;-80
2022/09/03 04:51:30;;;;;;;2.17;1.30;;;;;;;14.71;100.00;98672.25;5113710;28;20207;-79
2022/09/03 04:54:01;;;;;;;2.03;1.20;;;;;;;14.60;100.00;98684.72;5115441;28;20206;-79
2022/09/03 04:56:32;;;;;;;3.77;1.30;;;;;;;14.63;100.00;98678.28;5113896;28;20270;-79
2022/09/03 04:59:02;;;;;;;2.57;1.37;;;;;;;14.74;100.00;98687.97;5116037;28;20304;-79
2022/09/03 05:01:33;;;;;;;1.30;1.20;;;;;;;14.60;100.00;98679.41;5116508;28;20226;-79
2022/09/03 05:04:02;;;;;;;2.60;1.30;;;;;;;14.66;100.00;98675.31;5109493;28;20187;-79
2022/09/03 05:06:32;;;;;;;2.03;1.40;;;;;;;14.72;100.00;98669.47;5114604;27;20199;-79
2022/09/03 05:09:03;;;;;;;4.40;1.50;;;;;;;14.67;100.00;98673.50;5108663;28;20213;-79
2022/09/03 05:11:31;;;;;;;1.20;1.10;;;;;;;14.60;100.00;98682.06;5116073;28;20195;-79
2022/09/03 05:14:00;;;;;;;3.53;1.30;;;;;;;14.58;100.00;98681.34;5115902;28;20198;-79
2022/09/03 05:16:38;;;;;;;4.20;1.57;;;;;;;14.62;100.00;98676.59;5115915;28;20193;-79
2022/09/03 05:19:07;;;;;;;2.17;1.30;;;;;;;14.83;100.00;98684.50;5115718;27;20223;-79
2022/09/03 05:21:36;;;;;;;1.67;1.30;;;;;;;14.88;100.00;98679.63;5112162;28;20266;-80
2022/09/03 05:24:07;;;;;;;2.67;1.33;;;;;;;14.94;100.00;98684.38;5118229;27;20223;-79
2022/09/03 05:26:38;;;;;;;3.93;1.50;;;;;;;14.86;100.00;98676.22;5113776;28;20199;-79
2022/09/03 05:29:07;;;;;;;3.37;1.40;;;;;;;15.03;100.00;98688.03;5115900;28;20646;-79
2022/09/03 05:31:38;;;;;;;2.20;1.50;;;;;;;14.83;100.00;98685.34;5111805;28;20187;-79
2022/09/03 05:34:08;;;;;;;2.47;1.40;;;;;;;14.80;100.00;98690.97;5109903;28;20203;-79
2022/09/03 05:36:47;;;;;;;2.23;1.30;;;;;;;14.87;100.00;98688.59;5116044;27;20199;-79
2022/09/03 05:39:18;;;;;;;2.80;1.50;;;;;;;15.00;100.00;98696.34;5109132;28;20214;-79
2022/09/03 05:41:52;;;;;;;4.53;1.40;;;;;;;15.06;100.00;98698.47;5112099;28;20199;-79
2022/09/03 05:44:22;;;;;;;2.20;1.27;;;;;;;15.02;100.00;98694.38;5079702;28;20202;-79
2022/09/03 05:46:51;;;;;;;2.70;1.70;;;;;;;15.15;100.00;98692.25;5107112;28;20194;-80
2022/09/03 05:49:19;;;;;;;2.57;1.43;;;;;;;15.00;100.00;98707.00;5111296;28;20219;-79
2022/09/03 05:51:48;;;;;;;1.60;1.50;;;;;;;15.07;100.00;98702.81;5110051;28;20191;-79
2022/09/03 05:54:18;;;;;;;1.63;1.37;;;;;;;15.16;100.00;98697.50;5113299;28;20219;-79
2022/09/03 05:56:46;;;;;;;2.50;1.50;;;;;;;15.32;100.00;98704.09;5109416;28;20210;-79
2022/09/03 05:59:15;;;;;;;3.80;1.47;;;;;;;15.35;100.00;98702.00;5106399;28;20215;-79
2022/09/03 06:01:45;;;;;;;1.70;1.20;;;;;;;15.51;100.00;98701.44;5114295;27;20184;-79
2022/09/03 06:04:19;;;;;;;1.83;1.27;;;;;;;15.51;100.00;98704.09;5111398;28;20269;-79
2022/09/03 06:06:49;;;;;;;3.13;1.50;;;;;;;15.63;100.00;98707.50;5112359;28;20206;-80
2022/09/03 06:09:20;;;;;;;2.13;1.30;;;;;;;15.54;100.00;98705.63;5112407;28;20192;-79
2022/09/03 06:11:52;;;;;;;1.67;1.30;;;;;;;15.69;100.00;98705.13;5114712;28;20642;-79
2022/09/03 06:14:22;;;;;;;1.70;1.40;;;;;;;15.77;100.00;98703.56;5111685;28;20227;-79
2022/09/03 06:16:51;;;;;;;1.90;1.47;;;;;;;15.78;100.00;98700.75;5109802;28;20199;-79
2022/09/03 06:19:21;;;;;;;1.63;1.30;;;;;;;15.90;100.00;98709.44;5111090;28;20226;-80
2022/09/03 06:21:50;;;;;;;5.17;1.40;;;;;;;15.80;100.00;98703.28;5108562;28;20692;-79
2022/09/03 06:24:23;;;;;;;2.23;1.60;;;;;;;15.90;100.00;98704.94;5107806;28;20199;-79
2022/09/03 06:26:55;;;;;;;1.87;1.27;;;;;;;16.13;100.00;98713.50;5109600;28;20202;-79
2022/09/03 06:29:24;;;;;;;5.43;1.70;;;;;;;16.25;100.00;98706.16;5110471;28;20198;-79
2022/09/03 06:31:53;;;;;;;6.27;1.67;;;;;;;16.27;100.00;98715.69;5112641;28;20226;-79
2022/09/03 06:34:24;;;;;;;9.03;1.53;;;;;;;16.43;100.00;98715.09;5110980;28;20195;-79
2022/09/03 06:36:53;;;;;;;10.53;1.90;;;;;;;16.22;100.00;98717.97;5113102;27;20234;-79
2022/09/03 06:39:24;;;;;;;16.03;2.17;;;;;;;16.22;100.00;98717.13;5111379;28;20239;-79
2022/09/03 06:41:53;;;;;;;9.73;1.70;;;;;;;16.32;100.00;98717.94;5108020;28;20195;-79
2022/09/03 06:44:22;;;;;;;19.40;2.03;;;;;;;16.26;100.00;98711.34;5111698;28;20721;-79
2022/09/03 06:46:52;;;;;;;15.80;2.13;;;;;;;16.49;100.00;98710.97;5067124;28;20242;-79
2022/09/03 06:49:20;;;;;;;21.40;2.27;;;;;;;16.63;100.00;98713.19;5067576;28;20255;-80
2022/09/03 06:51:48;;;;;;;14.67;2.00;;;;;;;16.81;100.00;98711.44;5065051;28;20272;-79
2022/09/03 06:54:19;;;;;;;10.50;1.67;;;;;;;16.73;100.00;98713.16;5060569;28;20283;-79
2022/09/03 06:56:49;;;;;;;12.27;1.80;;;;;;;16.87;100.00;98716.19;5067699;28;20207;-79
2022/09/03 06:59:17;;;;;;;15.23;1.97;;;;;;;16.93;100.00;98711.25;5060953;28;20226;-79
2022/09/03 07:01:46;;;;;;;7.23;1.57;;;;;;;17.10;100.00;98707.75;4989690;28;20226;-79
2022/09/03 07:04:16;;;;;;;7.60;1.67;;;;;;;17.12;100.00;98714.63;4957855;28;20596;-79
2022/09/03 07:06:48;;;;;;;8.77;1.50;;;;;;;17.19;100.00;98725.59;4989194;28;20226;-79
2022/09/03 07:09:17;;;;;;;9.77;1.73;;;;;;;17.27;100.00;98722.13;4992075;28;20230;-79
2022/09/03 07:11:49;;;;;;;13.63;2.10;;;;;;;17.31;100.00;98718.19;4987942;28;20199;-79
2022/09/03 07:14:18;;;;;;;13.37;1.70;;;;;;;17.39;100.00;98719.13;4990208;28;20195;-79
2022/09/03 07:16:49;;;;;;;13.03;1.60;;;;;;;17.38;100.00;98728.13;4991758;28;20268;-79
2022/09/03 07:19:17;;;;;;;4.20;1.70;;;;;;;17.36;100.00;98721.22;4990722;28;20251;-79
2022/09/03 07:21:46;;;;;;;1.67;1.20;;;;;;;17.54;100.00;98710.53;4991611;28;20195;-79
2022/09/03 07:24:20;;;;;;;2.60;1.77;;;;;;;17.67;100.00;98717.19;4991400;28;20203;-79
2022/09/03 07:26:51;;;;;;;2.40;1.30;;;;;;;17.83;100.00;98713.00;5030085;28;20284;-79
2022/09/03 07:29:20;;;;;;;1.77;1.30;;;;;;;17.78;99.97;98720.66;5047018;28;20280;-80
2022/09/03 07:31:51;;;;;;;2.60;1.50;;;;;;;17.79;99.68;98712.47;5044372;28;20208;-79
2022/09/03 07:34:24;;;;;;;4.57;1.33;;;;;;;17.79;99.86;98711.63;5049009;28;20276;-80
2022/09/03 07:36:53;;;;;;;3.43;1.60;;;;;;;18.01;99.21;98720.00;5109624;28;20210;-79
2022/09/03 07:39:22;;;;;;;4.27;1.23;;;;;;;18.16;98.24;98717.63;5113628;28;20214;-79
2022/09/03 07:41:53;;;;;;;1.77;1.20;;;;;;;18.05;98.89;98717.00;5110455;28;20642;-79
2022/09/03 07:44:23;;;;;;;4.23;1.33;;;;;;;18.13;97.91;98720.59;5113050;28;20206;-79
2022/09/03 07:46:52;;;;;;;2.83;1.40;;;;;;;18.20;97.27;98720.81;5108888;28;20190;-79
2022/09/03 07:49:21;;;;;;;2.17;1.50;;;;;;;18.21;96.60;98709.09;5107423;28;20226;-79
2022/09/03 07:51:52;;;;;;;4.17;1.30;;;;;;;18.27;96.31;98711.97;5113028;28;20210;-79
2022/09/03 07:54:22;;;;;;;3.90;1.60;;;;;;;18.31;95.92;98713.34;5107592;28;20187;-79
2022/09/03 07:57:00;;;;;;;4.30;1.30;;;;;;;18.36;96.17;98715.56;5110038;28;20204;-79
2022/09/03 07:59:30;;;;;;;2.20;1.50;;;;;;;18.38;96.50;98724.28;5105871;28;20223;-79
2022/09/03 08:01:58;;;;;;;2.13;1.17;;;;;;;18.47;95.79;98715.28;5109418;28;20203;-79
2022/09/03 08:04:27;;;;;;;4.10;1.30;;;;;;;18.42;95.86;98719.44;5103624;28;20195;-79
2022/09/03 08:06:56;;;;;;;3.63;1.37;;;;;;;18.53;95.94;98722.72;5117370;27;20222;-79
2022/09/03 08:09:25;;;;;;;2.47;1.30;;;;;;;18.52;95.54;98715.63;5109411;28;20206;-79
2022/09/03 08:11:53;;;;;;;3.70;1.10;;;;;;;18.50;94.95;98727.53;5113024;28;20210;-79
2022/09/03 08:14:23;;;;;;;4.47;1.40;;;;;;;18.37;95.65;98730.66;5109473;28;20274;-80
2022/09/03 08:16:51;;;;;;;4.47;1.30;;;;;;;18.45;95.64;98727.19;5117299;28;20278;-79
2022/09/03 08:19:21;;;;;;;4.27;1.30;;;;;;;18.52;96.13;98726.38;5111032;28;20256;-79
2022/09/03 08:21:49;;;;;;;1.83;1.30;;;;;;;18.45;96.68;98737.91;5116076;27;20255;-79
2022/09/03 08:24:20;;;;;;;1.30;1.20;;;;;;;18.50;96.44;98732.91;5112555;28;20202;-79
2022/09/03 08:26:48;;;;;;;2.33;1.20;;;;;;;18.50;96.05;98738.25;5091170;28;20195;-79
2022/09/03 08:29:20;;;;;;;2.93;1.20;;;;;;;18.55;95.96;98733.28;5089985;28;20304;-79
2022/09/03 08:31:50;;;;;;;3.77;1.73;;;;;;;18.48;96.51;98743.78;5083817;28;20206;-80
2022/09/03 08:34:20;;;;;;;2.40;1.47;;;;;;;18.69;95.52;98743.44;5090437;28;20200;-79
2022/09/03 08:36:51;;;;;;;1.87;1.50;;;;;;;18.80;94.70;98743.13;5091699;28;20262;-79
2022/09/03 08:39:21;;;;;;;2.57;1.73;;;;;;;18.79;93.92;98746.81;5089245;28;20226;-79
2022/09/03 08:42:33;;;;;;;4.33;1.87;;;;;;;18.79;94.24;98741.47;5088911;28;20200;-79
2022/09/03 08:45:06;;;;;;;2.50;1.67;;;;;;;18.73;94.38;98747.50;5102532;28;20280;-79
2022/09/03 08:47:42;;;;;;;3.00;1.50;;;;;;;18.75;93.47;98744.66;5114648;28;20206;-79
2022/09/03 08:50:17;;;;;;;3.63;1.50;;;;;;;18.64;92.97;98751.09;5107188;28;20206;-79
2022/09/03 08:52:48;;;;;;;1.73;1.30;;;;;;;18.56;94.22;98753.72;5112761;28;20427;-80
2022/09/03 08:55:22;;;;;;;3.13;1.50;;;;;;;18.34;97.04;98749.75;5108915;28;20195;-80
2022/09/03 08:57:55;;;;;;;4.27;1.90;;;;;;;18.51;98.03;98756.03;5118804;27;20194;-79
2022/09/03 09:00:24;;;;;;;2.00;1.47;;;;;;;18.65;96.37;98744.75;5114158;28;20290;-79
2022/09/03 09:03:20;;;;;;;1.40;1.30;;;;;;;18.64;95.61;98747.56;5113705;28;20184;-79
2022/09/03 09:05:54;;;;;;;4.80;1.50;;;;;;;18.73;94.66;98746.66;5112948;28;20233;-79
2022/09/03 09:08:33;;;;;;;1.87;1.40;;;;;;;18.77;94.59;98742.63;5111906;28;20197;-79
2022/09/03 09:11:10;;;;;;;1.77;1.40;;;;;;;18.73;95.03;98747.50;5112294;28;20195;-79
2022/09/03 09:13:46;;;;;;;2.23;1.40;;;;;;;18.75;95.17;98744.66;5115968;28;20225;-79
2022/09/03 09:16:22;;;;;;;3.33;1.40;;;;;;;18.73;96.33;98746.66;5115326;28;20218;-79
2022/09/03 09:19:10;;;;;;;3.43;1.47;;;;;;;18.85;97.60;98756.94;5108921;28;20285;-79
2022/09/03 09:21:47;;;;;;;3.10;1.50;;;;;;;18.53;100.00;98754.06;5107520;28;20203;-79
2022/09/03 09:24:22;;;;;;;5.20;1.30;;;;;;;18.62;99.95;98752.22;5026119;28;20203;-79
2022/09/03 09:26:55;;;;;;;2.10;1.47;;;;;;;18.64;100.00;98740.38;5070868;28;20220;-79
2022/09/03 09:29:27;;;;;;;1.33;1.23;;;;;;;18.66;99.52;98740.22;5069674;28;20235;-79
2022/09/03 09:31:57;;;;;;;1.87;1.30;;;;;;;18.71;98.63;98737.91;5069305;28;20207;-79
2022/09/03 09:34:27;;;;;;;1.73;1.33;;;;;;;18.63;98.31;98735.16;4973964;28;20210;-80
2022/09/03 09:36:56;;;;;;;5.13;1.60;;;;;;;18.78;97.96;98745.16;4975220;28;20207;-79
2022/09/03 09:39:25;;;;;;;2.27;1.50;;;;;;;18.80;97.98;98740.47;4966906;28;20207;-80
2022/09/03 09:42:01;;;;;;;2.93;1.40;;;;;;;18.74;97.83;98740.28;4991808;28;20207;-79
2022/09/03 09:44:29;;;;;;;3.10;1.70;;;;;;;18.99;97.02;98735.84;5027870;28;20201;-79
2022/09/03 09:47:07;;;;;;;5.07;1.30;;;;;;;19.03;96.02;98738.06;5033782;28;20278;-80
2022/09/03 09:49:44;;;;;;;2.03;1.50;;;;;;;19.08;96.03;98737.56;5026383;28;20221;-80
2022/09/03 09:52:17;;;;;;;3.13;1.50;;;;;;;19.31;95.45;98729.75;5029791;28;20197;-79
2022/09/03 09:54:49;;;;;;;2.63;1.50;;;;;;;19.39;94.86;98725.22;5032650;28;20258;-79
2022/09/03 09:57:23;;;;;;;5.70;1.60;;;;;;;19.51;94.77;98717.72;5024923;28;20201;-80
2022/09/03 10:00:05;;;;;;;3.33;1.77;;;;;;;19.49;94.81;98726.91;5029053;28;20791;-79
2022/09/03 10:02:36;;;;;;;2.53;1.70;;;;;;;19.54;94.10;98740.72;5032502;28;20201;-79
2022/09/03 10:05:16;;;;;;;2.17;1.53;;;;;;;19.62;94.18;98743.44;5049879;28;20282;-80
2022/09/03 10:07:55;;;;;;;3.60;1.30;;;;;;;19.67;94.05;98735.72;5111681;28;20684;-80
2022/09/03 10:10:29;;;;;;;2.07;1.37;;;;;;;19.94;92.92;98738.06;5113230;28;20691;-80
2022/09/03 10:13:12;;;;;;;2.20;1.70;;;;;;;19.99;92.63;98743.81;5114852;28;20198;-80
2022/09/03 10:15:46;;;;;;;2.70;1.43;;;;;;;19.83;93.06;98743.78;5113604;28;20202;-80
2022/09/03 10:18:26;;;;;;;4.03;1.40;;;;;;;20.02;93.54;98748.00;5110724;28;20194;-80
2022/09/03 10:21:06;;;;;;;2.43;1.50;;;;;;;19.87;94.48;98753.19;5113257;27;20664;-80
2022/09/03 10:23:47;;;;;;;3.40;1.70;;;;;;;19.75;96.05;98740.25;5111037;28;20195;-79
2022/09/03 10:26:20;;;;;;;2.23;1.50;;;;;;;19.77;95.94;98747.13;5114843;28;20277;-80
2022/09/03 10:28:52;;;;;;;2.20;1.40;;;;;;;19.64;96.69;98744.09;5114746;27;20194;-80
2022/09/03 10:31:53;;;;;;;5.13;1.67;;;;;;;19.52;98.82;98745.41;5112030;28;20198;-80
2022/09/03 10:34:33;;;;;;;4.13;1.60;;;;;;;19.61;98.85;98745.28;5102229;28;20484;-79
2022/09/03 10:37:15;;;;;;;4.33;1.40;;;;;;;19.71;98.48;98756.72;5113975;27;20195;-79
2022/09/03 10:39:58;;;;;;;2.33;1.30;;;;;;;19.52;100.00;98758.84;5112301;27;20256;-80
2022/09/03 10:42:41;;;;;;;4.13;1.80;;;;;;;19.59;100.00;98757.19;5110939;28;20301;-79
2022/09/03 10:45:18;;;;;;;2.20;1.50;;;;;;;19.61;100.00;98752.50;5112129;28;20198;-80
2022/09/03 10:48:09;;;;;;;1.80;1.40;;;;;;;18.94;100.00;98770.41;5112201;28;20187;-80
2022/09/03 10:50:48;;;;;;;2.43;1.43;;;;;;;18.79;100.00;98765.63;5111829;28;20199;-80
2022/09/03 10:53:31;;;;;;;2.27;1.40;;;;;;;19.19;100.00;98757.88;5114458;28;20191;-79
2022/09/03 10:56:07;;;;;;;3.30;1.80;;;;;;;19.28;100.00;98764.97;5113993;27;20195;-79
2022/09/03 10:58:53;;;;;;;6.27;2.03;;;;;;;19.31;100.00;98752.06;5109221;28;20286;-79
2022/09/03 11:01:32;;;;;;;4.37;1.80;;;;;;;19.11;100.00;98753.34;5112809;27;20685;-79
2022/09/03 11:04:16;;;;;;;3.37;1.70;;;;;;;19.30;100.00;98755.78;5110600;28;20206;-79
2022/09/03 11:06:53;;;;;;;4.73;1.37;;;;;;;19.48;100.00;98758.31;5107642;28;20202;-80
2022/09/03 11:09:29;;;;;;;8.57;4.63;;;;;;;19.65;100.00;98757.38;5110850;28;20191;-79
2022/09/03 11:12:00;;;;;;;3.90;1.80;;;;;;;19.28;100.00;98760.44;5113786;27;20633;-79
2022/09/03 11:14:36;;;;;;;4.17;2.03;;;;;;;19.56;100.00;98755.69;5109846;28;20206;-80
2022/09/03 11:17:10;;;;;;;2.80;1.77;;;;;;;19.82;100.00;98758.25;5090688;28;20198;-80
2022/09/03 11:19:49;;;;;;;2.37;1.70;;;;;;;19.95;100.00;98758.56;5112501;28;20195;-80
2022/09/03 11:22:19;;;;;;;5.30;1.80;;;;;;;20.01;100.00;98759.75;5106402;28;20359;-80
2022/09/03 11:24:54;;;;;;;2.87;1.57;;;;;;;20.02;100.00;98756.91;5108767;28;20191;-79
2022/09/03 11:27:36;;;;;;;2.10;1.63;;;;;;;20.04;100.00;98750.50;5113749;28;20198;-79
2022/09/03 11:30:07;;;;;;;3.33;2.00;;;;;;;19.91;100.00;98748.34;5109932;28;20688;-79
2022/09/03 11:32:48;;;;;;;2.87;1.57;;;;;;;20.26;100.00;98755.19;5109376;28;20252;-80
2022/09/03 11:35:28;;;;;;;3.33;1.83;;;;;;;20.45;100.00;98752.16;5109186;28;20191;-80
2022/09/03 11:38:00;;;;;;;2.93;1.93;;;;;;;20.62;100.00;98749.47;5109801;28;20222;-80
2022/09/03 11:40:58;;;;;;;4.57;1.63;;;;;;;20.79;99.45;98740.31;5107510;28;20225;-80
2022/09/03 11:43:29;;;;;;;4.73;2.00;;;;;;;20.99;97.22;98730.81;5109414;28;20191;-79
2022/09/03 11:46:10;;;;;;;3.27;1.90;;;;;;;21.18;96.10;98742.19;5108462;28;20637;-80
2022/09/03 11:48:45;;;;;;;5.93;2.20;;;;;;;21.34;94.12;98731.38;5113147;28;20739;-80
2022/09/03 11:51:21;;;;;;;2.70;1.77;;;;;;;21.49;93.02;98739.50;5108030;28;20201;-80
2022/09/03 11:53:59;;;;;;;2.70;1.50;;;;;;;21.68;91.12;98739.03;5111239;28;20209;-80
2022/09/03 11:56:32;;;;;;;2.15;1.80;;;;;;;21.62;92.20;98740.63;5113142;28;20195;-80
2022/09/03 11:59:15;;;;;;;4.40;1.90;;;;;;;21.70;90.28;98737.84;5110571;28;20225;-79